createdAt,value
2019-03-06T00:04:50.006Z,636.13
2019-03-06T00:07:22.624Z,630.30
2019-03-06T00:13:53.626Z,622.02
2019-03-06T00:20:25.860Z,618.87
2019-03-06T00:26:56.353Z,614.30
2019-03-06T00:33:27.576Z,626.63
2019-03-06T00:40:00.353Z,638.87
2019-03-06T00:50:25.567Z,644.40
2019-03-06T00:53:50.171Z,647.87
2019-03-06T01:00:24.142Z,655.97
2019-03-06T01:06:55.357Z,661.33
2019-03-06T01:13:28.494Z,666.95
2019-03-06T01:19:58.944Z,669.45
2019-03-06T01:26:29.730Z,653.17
2019-03-06T01:33:04.984Z,646.98
2019-03-06T01:36:29.688Z,656.55
2019-03-06T01:43:01.971Z,657.45
2019-03-06T01:49:33.114Z,651.85
2019-03-06T01:56:04.129Z,657.88
2019-03-06T02:02:35.170Z,643.65
2019-03-06T02:05:59.618Z,639.75
2019-03-06T02:12:30.736Z,633.53
2019-03-06T02:19:02.216Z,622.15
2019-03-06T02:22:26.855Z,615.62
2019-03-06T02:28:57.588Z,629.27
2019-03-06T02:35:27.995Z,614.57
2019-03-06T02:41:58.656Z,626.02
2019-03-06T02:48:29.458Z,614.60
2019-03-06T02:50:59.455Z,610.25
2019-03-06T02:57:30.376Z,605.55
2019-03-06T03:04:02.676Z,605.22
2019-03-06T03:10:33.786Z,595.83
2019-03-06T03:13:58.544Z,585.40
2019-03-06T03:20:29.299Z,570.52
2019-03-06T03:27:00.561Z,563.90
2019-03-06T03:33:31.085Z,565.92
2019-03-06T03:36:55.377Z,554.17
2019-03-06T03:43:25.995Z,555.35
2019-03-06T03:49:56.485Z,559.65
2019-03-06T03:56:28.171Z,557.88
2019-03-06T03:59:55.547Z,554.85
2019-03-06T04:06:43.627Z,556.67
2019-03-06T04:09:26.496Z,539.25
2019-03-06T04:11:56.707Z,544.95
2019-03-06T04:14:26.459Z,547.77
2019-03-06T04:17:50.715Z,547.83
2019-03-06T04:24:20.932Z,555.10
2019-03-06T04:30:52.815Z,543.97
2019-03-06T04:34:17.311Z,541.65
2019-03-06T04:40:48.604Z,558.87
2019-03-06T04:47:19.551Z,544.13
2019-03-06T04:53:49.745Z,546.63
2019-03-06T05:00:22.361Z,542.20
2019-03-06T05:03:47.451Z,546.77
2019-03-06T05:10:18.209Z,548.65
2019-03-06T05:16:53.903Z,539.90
2019-03-06T05:23:25.191Z,540.60
2019-03-06T05:26:49.296Z,530.87
2019-03-06T05:33:19.588Z,540.90
2019-03-06T05:39:50.878Z,537.65
2019-03-06T05:46:20.931Z,538.08
2019-03-06T05:49:45.389Z,542.73
2019-03-06T05:56:15.745Z,540.83
2019-03-06T06:02:46.692Z,536.13
2019-03-06T06:09:17.559Z,538.40
2019-03-06T06:11:47.340Z,532.70
2019-03-06T06:18:18.128Z,542.67
2019-03-06T06:24:48.891Z,535.80
2019-03-06T06:31:19.708Z,535.97
2019-03-06T06:34:44.513Z,534.00
2019-03-06T06:41:15.501Z,540.90
2019-03-06T06:48:11.092Z,545.48
2019-03-06T06:51:01.963Z,544.28
2019-03-06T06:57:53.419Z,553.35
2019-03-06T07:04:46.103Z,554.23
2019-03-06T07:08:10.247Z,552.90
2019-03-06T07:14:42.428Z,574.35
2019-03-06T07:21:16.933Z,579.45
2019-03-06T07:24:41.604Z,585.52
2019-03-06T07:31:14.421Z,619.30
2019-03-06T07:37:49.572Z,660.08
2019-03-06T07:44:36.734Z,678.50
2019-03-06T07:48:01.274Z,692.00
2019-03-06T07:54:33.386Z,706.87
2019-03-06T08:01:04.100Z,696.35
2019-03-06T08:04:28.778Z,692.47
2019-03-06T08:11:00.220Z,693.73
2019-03-06T08:13:51.551Z,695.80
2019-03-06T08:16:32.125Z,698.27
2019-03-06T08:23:09.819Z,697.15
2019-03-06T08:26:34.259Z,696.25
2019-03-06T08:33:04.725Z,709.42
2019-03-06T08:35:51.111Z,714.90
2019-03-06T08:46:23.495Z,746.53
2019-03-06T08:49:47.771Z,740.47
2019-03-06T08:56:25.295Z,765.33
2019-03-06T09:03:19.992Z,794.42
2019-03-06T09:10:00.719Z,803.20
2019-03-06T09:16:35.957Z,846.20
2019-03-06T09:23:23.183Z,859.05
2019-03-06T09:29:54.161Z,857.90
2019-03-06T09:36:44.276Z,852.58
2019-03-06T09:40:08.936Z,843.40
2019-03-06T09:46:58.042Z,842.17
2019-03-06T09:53:39.977Z,839.20
2019-03-06T10:00:16.606Z,844.37
2019-03-06T10:02:48.218Z,836.28
2019-03-06T10:06:12.770Z,855.12
2019-03-06T10:12:51.282Z,878.65
2019-03-06T10:19:29.673Z,900.65
2019-03-06T10:26:00.980Z,920.57
2019-03-06T10:29:25.571Z,923.03
2019-03-06T10:35:56.615Z,924.53
2019-03-06T10:42:27.929Z,940.12
2019-03-06T10:48:58.809Z,971.87
2019-03-06T10:55:29.720Z,989.10
2019-03-06T11:02:01.111Z,987.30
2019-03-06T11:08:32.260Z,993.48
2019-03-06T11:11:56.861Z,986.12
2019-03-06T11:18:28.064Z,966.23
2019-03-06T11:20:57.971Z,967.85
2019-03-06T11:27:28.865Z,971.57
2019-03-06T11:33:59.916Z,977.02
2019-03-06T11:40:31.175Z,978.22
2019-03-06T11:47:03.815Z,980.80
2019-03-06T11:53:34.724Z,981.40
2019-03-06T12:00:39.659Z,983.23
2019-03-06T12:07:11.139Z,980.87
2019-03-06T12:13:42.361Z,981.98
2019-03-06T12:17:06.831Z,979.92
2019-03-06T12:23:37.447Z,969.85
2019-03-06T12:30:16.726Z,980.50
2019-03-06T12:36:47.693Z,987.83
2019-03-06T12:43:18.673Z,1000.70
2019-03-06T12:49:49.441Z,1016.80
2019-03-06T12:56:20.226Z,1039.93
2019-03-06T13:02:51.538Z,1029.75
2019-03-06T13:09:23.718Z,1028.33
2019-03-06T13:15:54.735Z,1025.95
2019-03-06T13:22:25.818Z,1028.57
2019-03-06T13:24:55.726Z,1023.25
2019-03-06T13:31:26.662Z,1026.48
2019-03-06T13:37:57.545Z,1036.05
2019-03-06T13:44:28.429Z,1034.65
2019-03-06T13:50:59.159Z,1036.85
2019-03-06T13:57:29.827Z,1034.55
2019-03-06T14:04:00.573Z,1038.28
2019-03-06T14:10:31.401Z,1045.10
2019-03-06T14:17:02.332Z,1039.25
2019-03-06T14:23:35.244Z,1050.78
2019-03-06T14:26:07.052Z,1035.15
2019-03-06T14:32:38.631Z,1043.33
2019-03-06T14:39:26.905Z,1043.78
2019-03-06T14:42:51.444Z,1027.73
2019-03-06T14:49:41.594Z,1036.95
2019-03-06T14:52:35.482Z,1029.58
2019-03-06T14:55:07.746Z,1043.30
2019-03-06T14:57:38.492Z,1026.13
2019-03-06T15:00:12.294Z,1040.00
2019-03-06T15:03:36.971Z,1026.70
2019-03-06T15:10:10.850Z,1035.10
2019-03-06T15:16:41.954Z,1032.63
2019-03-06T15:23:13.246Z,1042.20
2019-03-06T15:26:37.875Z,1021.60
2019-03-06T15:33:09.131Z,1024.20
2019-03-06T15:36:20.323Z,1010.58
2019-03-06T15:42:51.022Z,1021.53
2019-03-06T15:46:15.517Z,1011.98
2019-03-06T15:52:46.205Z,1005.47
2019-03-06T15:59:16.624Z,1013.92
2019-03-06T16:02:40.808Z,1019.93
2019-03-06T16:09:10.952Z,1007.00
2019-03-06T16:12:35.011Z,1004.35
2019-03-06T16:19:05.906Z,1020.68
2019-03-06T16:25:39.718Z,1016.80
2019-03-06T16:29:02.707Z,1023.33
2019-03-06T16:35:33.117Z,1008.32
2019-03-06T16:38:57.651Z,1010.40
2019-03-06T16:45:29.725Z,1012.58
2019-03-06T16:52:00.371Z,998.55
2019-03-06T16:54:30.384Z,990.20
2019-03-06T17:01:01.928Z,983.85
2019-03-06T17:07:32.687Z,977.30
2019-03-06T17:14:04.147Z,983.00
2019-03-06T17:20:36.068Z,965.37
2019-03-06T17:24:00.377Z,950.83
2019-03-06T17:30:33.103Z,949.23
2019-03-06T17:33:57.457Z,940.38
2019-03-06T17:40:29.534Z,941.30
2019-03-06T17:43:54.697Z,927.20
2019-03-06T17:50:25.915Z,927.10
2019-03-06T17:56:57.020Z,946.12
2019-03-06T18:03:31.197Z,939.70
2019-03-06T18:10:02.791Z,976.75
2019-03-06T18:13:27.648Z,981.35
2019-03-06T18:19:58.676Z,1001.02
2019-03-06T18:26:29.874Z,998.35
2019-03-06T18:29:54.062Z,1009.67
2019-03-06T18:36:24.906Z,1019.17
2019-03-06T18:39:49.488Z,1010.25
2019-03-06T18:46:20.569Z,1028.63
2019-03-06T18:52:51.700Z,1041.43
2019-03-06T18:59:23.031Z,1044.58
2019-03-06T19:02:29.406Z,1042.75
2019-03-06T19:09:00.473Z,1047.73
2019-03-06T19:15:32.939Z,1055.23
2019-03-06T19:22:03.369Z,1061.15
2019-03-06T19:25:27.995Z,1056.38
2019-03-06T19:31:58.160Z,1061.50
2019-03-06T19:35:22.090Z,1060.80
2019-03-06T19:41:52.334Z,1062.28
2019-03-06T19:44:52.643Z,1057.28
2019-03-06T19:51:23.818Z,1064.15
2019-03-06T19:54:48.948Z,1062.55
2019-03-06T20:01:19.516Z,1063.95
2019-03-06T20:07:49.908Z,1071.53
2019-03-06T20:14:20.774Z,1064.10
2019-03-06T20:20:52.300Z,1058.93
2019-03-06T20:24:17.204Z,1072.90
2019-03-06T20:30:48.342Z,1070.78
2019-03-06T20:37:18.983Z,1059.83
2019-03-06T20:40:25.480Z,1062.60
2019-03-06T20:46:55.925Z,1066.30
2019-03-06T20:53:26.047Z,1063.00
2019-03-06T20:59:56.321Z,1067.47
2019-03-06T21:02:26.315Z,1072.68
2019-03-06T21:08:56.845Z,1067.75
2019-03-06T21:15:26.724Z,1070.48
2019-03-06T21:21:57.623Z,1069.20
2019-03-06T21:25:22.035Z,1066.98
2019-03-06T21:31:52.733Z,1075.90
2019-03-06T21:38:23.741Z,1069.20
2019-03-06T21:44:54.860Z,1073.75
2019-03-06T21:51:26.096Z,1076.80
2019-03-06T21:54:50.542Z,1072.65
2019-03-06T22:01:21.240Z,1062.73
2019-03-06T22:03:51.172Z,1067.35
2019-03-06T22:10:21.909Z,1059.93
2019-03-06T22:16:52.754Z,1067.67
2019-03-06T22:20:17.119Z,1069.40
2019-03-06T22:26:47.839Z,1066.20
2019-03-06T22:33:18.414Z,1065.80
2019-03-06T22:36:42.923Z,1071.13
2019-03-06T22:43:13.415Z,1066.58
2019-03-06T22:46:37.873Z,1074.50
2019-03-06T22:53:08.818Z,1075.18
2019-03-06T22:59:39.557Z,1073.78
2019-03-06T23:06:10.849Z,1079.17
2019-03-06T23:09:18.835Z,1077.28
2019-03-06T23:15:49.559Z,1078.50
2019-03-06T23:22:20.498Z,1073.73
2019-03-06T23:28:51.572Z,1077.90
2019-03-06T23:35:22.509Z,1077.35
2019-03-06T23:41:52.983Z,1080.90
2019-03-06T23:48:24.018Z,1073.05
2019-03-06T23:54:55.154Z,1076.48
2019-03-06T23:57:44.227Z,1074.83
